Time;durP1;ratioP1;P1;durP2;ratioP2;P2;SDS_P1;SDS_P2;PMS_P1;PMS_P2;Temp;Humidity;BMP_temperature;BMP_pressure;BME280_temperature;BME280_humidity;BME280_pressure;Samples;Min_cycle;Max_cycle;Signal;HPM_P1;HPM_P2
2022/06/04 00:01:48;;;;;;;12.47;7.80;;;;;;;;;;5020961;28;20487;-83
2022/06/04 00:04:15;;;;;;;9.87;6.80;;;;;;;;;;5024854;28;20465;-83
2022/06/04 00:06:44;;;;;;;9.20;7.17;;;;;;;;;;5023831;28;20477;-82
2022/06/04 00:09:11;;;;;;;10.40;7.20;;;;;;;;;;5022456;28;20489;-82
2022/06/04 00:17:20;;;;;;;10.70;7.87;;;;;;;;;;5019316;28;20514;-82
2022/06/04 00:19:47;;;;;;;10.20;7.20;;;;;;;;;;5024115;28;20455;-81
2022/06/04 00:22:14;;;;;;;14.30;8.73;;;;;;;;;;5022776;28;20499;-83
2022/06/04 00:24:41;;;;;;;18.50;9.23;;;;;;;;;;5022865;28;20461;-83
2022/06/04 00:27:13;;;;;;;19.07;8.77;;;;;;;;;;5023424;28;20473;-83
2022/06/04 00:29:39;;;;;;;13.30;8.97;;;;;;;;;;5024271;28;20915;-83
2022/06/04 00:32:06;;;;;;;9.07;7.70;;;;;;;;;;5027182;28;20921;-83
2022/06/04 00:34:33;;;;;;;17.77;9.40;;;;;;;;;;5026628;28;20460;-83
2022/06/04 00:36:59;;;;;;;14.23;9.17;;;;;;;;;;5026916;28;20530;-83
2022/06/04 00:39:27;;;;;;;13.67;8.97;;;;;;;;;;5027301;28;20503;-82
2022/06/04 00:41:55;;;;;;;13.43;8.33;;;;;;;;;;5026796;28;20469;-82
2022/06/04 00:44:36;;;;;;;10.43;8.00;;;;;;;;;;5028385;28;20468;-83
2022/06/04 00:47:08;;;;;;;13.80;9.30;;;;;;;;;;5023613;28;20480;-83
2022/06/04 00:49:34;;;;;;;10.37;8.27;;;;;;;;;;5028638;28;20546;-82
2022/06/04 00:52:00;;;;;;;10.27;8.30;;;;;;;;;;5027410;28;20483;-83
2022/06/04 00:54:28;;;;;;;9.13;8.23;;;;;;;;;;5025030;28;20461;-81
2022/06/04 00:57:00;;;;;;;11.17;9.03;;;;;;;;;;5025754;28;20540;-82
2022/06/04 00:59:31;;;;;;;14.23;8.80;;;;;;;;;;5027443;28;20460;-83
2022/06/04 01:02:01;;;;;;;13.70;8.60;;;;;;;;;;5026718;28;20993;-83
2022/06/04 01:04:50;;;;;;;10.40;8.73;;;;;;;;;;5025513;28;20950;-83
2022/06/04 01:07:31;;;;;;;13.00;9.13;;;;;;;;;;5026524;28;20492;-83
2022/06/04 01:10:04;;;;;;;16.40;9.00;;;;;;;;;;5021416;28;20535;-82
2022/06/04 01:12:38;;;;;;;11.33;9.57;;;;;;;;;;5024654;28;20469;-83
2022/06/04 01:15:10;;;;;;;12.80;9.60;;;;;;;;;;5027033;28;20511;-83
2022/06/04 01:17:44;;;;;;;13.77;10.27;;;;;;;;;;5026296;28;20480;-82
2022/06/04 01:20:17;;;;;;;11.17;9.87;;;;;;;;;;5027121;28;20510;-82
2022/06/04 01:22:51;;;;;;;13.50;9.83;;;;;;;;;;5025418;28;20587;-83
2022/06/04 01:25:33;;;;;;;12.37;9.43;;;;;;;;;;5025846;28;20459;-83
2022/06/04 01:28:02;;;;;;;12.30;10.20;;;;;;;;;;5025961;28;20466;-81
2022/06/04 01:30:31;;;;;;;14.00;9.80;;;;;;;;;;5027652;28;20508;-83
2022/06/04 01:33:00;;;;;;;16.00;9.77;;;;;;;;;;5025967;28;20476;-81
2022/06/04 01:35:29;;;;;;;18.73;10.40;;;;;;;;;;5027390;28;20472;-83
2022/06/04 01:37:57;;;;;;;14.30;10.07;;;;;;;;;;5024693;28;20887;-82
2022/06/04 01:43:13;;;;;;;18.50;10.73;;;;;;;;;;5024744;28;20931;-83
2022/06/04 01:45:41;;;;;;;12.70;9.70;;;;;;;;;;5026700;28;20456;-83
2022/06/04 01:48:09;;;;;;;12.70;10.53;;;;;;;;;;5025889;28;21021;-83
2022/06/04 01:50:36;;;;;;;15.03;10.83;;;;;;;;;;5026120;28;20836;-83
2022/06/04 01:53:05;;;;;;;14.33;11.00;;;;;;;;;;5026065;28;20480;-83
2022/06/04 01:55:34;;;;;;;20.50;11.70;;;;;;;;;;5025577;28;20464;-82
2022/06/04 01:58:02;;;;;;;14.30;10.80;;;;;;;;;;5023948;28;20484;-83
2022/06/04 02:00:33;;;;;;;13.60;11.20;;;;;;;;;;5024397;28;20461;-82
2022/06/04 02:03:02;;;;;;;16.40;10.97;;;;;;;;;;5025159;28;20516;-83
2022/06/04 02:05:30;;;;;;;18.23;11.20;;;;;;;;;;5025140;28;20554;-84
2022/06/04 02:07:58;;;;;;;17.83;11.57;;;;;;;;;;5025670;28;20844;-82
2022/06/04 02:10:26;;;;;;;17.53;10.40;;;;;;;;;;5023808;28;20476;-82
2022/06/04 02:12:54;;;;;;;16.73;11.07;;;;;;;;;;5024990;28;20488;-83
2022/06/04 02:15:21;;;;;;;13.20;9.60;;;;;;;;;;5024512;28;20461;-83
2022/06/04 02:17:53;;;;;;;18.03;12.00;;;;;;;;;;5025168;28;20477;-82
2022/06/04 02:20:20;;;;;;;14.50;10.70;;;;;;;;;;5025009;28;20978;-83
2022/06/04 02:22:46;;;;;;;17.20;11.70;;;;;;;;;;5023785;28;20485;-82
2022/06/04 02:25:15;;;;;;;16.90;11.13;;;;;;;;;;5025534;28;20535;-83
2022/06/04 02:27:43;;;;;;;14.23;11.10;;;;;;;;;;5024254;28;20834;-82
2022/06/04 02:30:10;;;;;;;25.53;12.37;;;;;;;;;;5024058;28;20554;-83
2022/06/04 02:32:40;;;;;;;14.20;11.10;;;;;;;;;;5024113;28;20472;-83
2022/06/04 02:35:10;;;;;;;24.43;11.63;;;;;;;;;;5025873;28;20540;-82
2022/06/04 02:37:41;;;;;;;16.03;11.03;;;;;;;;;;5024547;28;20480;-83
2022/06/04 02:40:09;;;;;;;26.43;12.00;;;;;;;;;;5024275;28;20458;-82
2022/06/04 02:42:38;;;;;;;12.77;11.50;;;;;;;;;;5024177;28;21232;-83
2022/06/04 02:45:07;;;;;;;15.17;12.00;;;;;;;;;;5024852;28;20942;-83
2022/06/04 02:47:36;;;;;;;19.17;11.90;;;;;;;;;;5022228;28;20546;-84
2022/06/04 02:50:04;;;;;;;16.47;12.90;;;;;;;;;;5023899;28;20485;-82
2022/06/04 02:52:33;;;;;;;20.07;12.10;;;;;;;;;;5025226;28;20532;-82
2022/06/04 02:55:01;;;;;;;19.60;11.93;;;;;;;;;;5024525;28;20462;-82
2022/06/04 02:57:28;;;;;;;22.30;12.47;;;;;;;;;;5023106;28;20488;-82
2022/06/04 02:59:54;;;;;;;17.63;12.67;;;;;;;;;;5024079;28;20453;-82
2022/06/04 03:02:21;;;;;;;18.17;11.77;;;;;;;;;;5023116;28;20488;-82
2022/06/04 03:04:49;;;;;;;15.83;11.47;;;;;;;;;;5024890;28;20484;-82
2022/06/04 03:07:16;;;;;;;17.97;12.57;;;;;;;;;;5021963;28;20495;-83
2022/06/04 03:09:44;;;;;;;18.63;12.83;;;;;;;;;;5024664;28;20514;-83
2022/06/04 03:12:11;;;;;;;19.30;11.80;;;;;;;;;;5021451;28;20519;-82
2022/06/04 03:14:38;;;;;;;19.27;11.93;;;;;;;;;;5023417;28;20844;-82
2022/06/04 03:17:06;;;;;;;18.13;12.10;;;;;;;;;;5023465;28;20907;-82
2022/06/04 03:19:32;;;;;;;21.00;12.17;;;;;;;;;;5020999;28;20457;-82
2022/06/04 03:21:59;;;;;;;17.93;12.50;;;;;;;;;;5023664;28;20481;-82
2022/06/04 03:24:26;;;;;;;20.17;12.70;;;;;;;;;;5021518;28;20456;-82
2022/06/04 03:29:21;;;;;;;14.10;12.00;;;;;;;;;;5003391;28;20858;-83
2022/06/04 03:31:48;;;;;;;16.47;12.10;;;;;;;;;;5009458;28;20986;-85
2022/06/04 03:34:14;;;;;;;15.97;11.17;;;;;;;;;;5008566;28;20458;-82
2022/06/04 03:36:41;;;;;;;15.43;10.60;;;;;;;;;;5008498;28;20537;-83
2022/06/04 03:39:08;;;;;;;18.90;13.07;;;;;;;;;;5008563;28;21016;-83
2022/06/04 03:41:34;;;;;;;22.57;12.90;;;;;;;;;;5007204;28;20512;-83
2022/06/04 03:44:01;;;;;;;18.67;12.50;;;;;;;;;;5009588;28;20517;-82
2022/06/04 03:46:28;;;;;;;19.97;11.47;;;;;;;;;;5007810;28;20536;-83
2022/06/04 03:48:56;;;;;;;19.83;12.17;;;;;;;;;;5005989;28;20474;-82
2022/06/04 03:51:23;;;;;;;18.80;12.33;;;;;;;;;;5009289;28;20483;-84
2022/06/04 03:53:50;;;;;;;16.50;11.73;;;;;;;;;;5006362;28;20472;-83
2022/06/04 03:56:16;;;;;;;18.47;13.60;;;;;;;;;;5008439;28;20500;-84
2022/06/04 03:58:42;;;;;;;17.30;12.57;;;;;;;;;;5009191;28;20498;-83
2022/06/04 04:01:15;;;;;;;16.37;11.93;;;;;;;;;;5008044;28;20886;-84
2022/06/04 04:03:43;;;;;;;16.63;11.03;;;;;;;;;;5009538;28;20465;-84
2022/06/04 04:06:12;;;;;;;17.37;12.00;;;;;;;;;;5006372;28;20465;-82
2022/06/04 04:08:38;;;;;;;13.87;10.33;;;;;;;;;;5010758;28;20477;-84
2022/06/04 04:11:06;;;;;;;14.23;11.60;;;;;;;;;;5011553;28;20474;-83
2022/06/04 04:13:32;;;;;;;14.03;10.60;;;;;;;;;;5013988;28;20481;-85
2022/06/04 04:15:58;;;;;;;17.63;12.00;;;;;;;;;;5014095;28;20488;-81
2022/06/04 04:18:25;;;;;;;16.37;10.97;;;;;;;;;;5007319;28;20481;-83
2022/06/04 04:20:52;;;;;;;17.07;12.50;;;;;;;;;;5003384;28;20539;-82
2022/06/04 04:23:18;;;;;;;20.77;11.57;;;;;;;;;;5004458;28;20533;-82
2022/06/04 04:25:45;;;;;;;19.63;12.03;;;;;;;;;;5004906;28;20470;-84
2022/06/04 04:28:11;;;;;;;17.30;10.83;;;;;;;;;;5005732;28;20547;-83
2022/06/04 04:30:38;;;;;;;16.07;11.80;;;;;;;;;;5007536;28;20539;-83
2022/06/04 04:33:05;;;;;;;15.87;11.00;;;;;;;;;;5006679;28;20485;-82
2022/06/04 04:35:32;;;;;;;13.63;10.90;;;;;;;;;;5006091;28;20958;-85
2022/06/04 04:38:00;;;;;;;16.93;11.80;;;;;;;;;;5004864;28;20572;-85
2022/06/04 04:40:27;;;;;;;17.53;11.00;;;;;;;;;;5003733;28;20517;-82
2022/06/04 04:42:54;;;;;;;17.03;10.97;;;;;;;;;;5005581;28;20509;-83
2022/06/04 04:45:21;;;;;;;18.83;11.40;;;;;;;;;;5004765;28;21742;-81
2022/06/04 04:47:48;;;;;;;18.17;11.20;;;;;;;;;;5003826;28;20481;-82
2022/06/04 04:50:16;;;;;;;15.10;10.53;;;;;;;;;;5004054;28;20501;-81
2022/06/04 04:52:42;;;;;;;15.00;10.77;;;;;;;;;;5005836;28;20473;-83
2022/06/04 04:55:10;;;;;;;17.30;10.80;;;;;;;;;;5005580;28;20461;-80
2022/06/04 04:57:36;;;;;;;19.43;11.20;;;;;;;;;;5005584;28;20474;-83
2022/06/04 05:00:04;;;;;;;16.90;11.33;;;;;;;;;;5004543;28;20462;-81
2022/06/04 05:02:30;;;;;;;17.60;11.10;;;;;;;;;;5003182;28;20477;-83
2022/06/04 05:04:57;;;;;;;12.53;10.53;;;;;;;;;;5004296;28;20468;-82
2022/06/04 05:07:23;;;;;;;17.50;10.33;;;;;;;;;;5005036;28;20474;-82
2022/06/04 05:09:49;;;;;;;15.60;10.87;;;;;;;;;;5005058;28;20468;-83
2022/06/04 05:12:17;;;;;;;18.93;11.67;;;;;;;;;;5003255;28;20466;-83
2022/06/04 05:14:43;;;;;;;17.77;11.00;;;;;;;;;;5005445;28;20473;-84
2022/06/04 05:17:10;;;;;;;15.87;11.50;;;;;;;;;;5004202;28;20746;-83
2022/06/04 05:19:36;;;;;;;18.60;10.90;;;;;;;;;;5004852;28;20512;-82
2022/06/04 05:22:03;;;;;;;21.70;11.20;;;;;;;;;;5003332;28;20469;-81
2022/06/04 05:24:31;;;;;;;14.37;10.53;;;;;;;;;;5004269;28;21034;-83
2022/06/04 05:26:57;;;;;;;15.13;11.10;;;;;;;;;;5002911;28;20483;-82
2022/06/04 05:29:25;;;;;;;16.10;10.90;;;;;;;;;;5003867;28;20461;-83
2022/06/04 05:31:53;;;;;;;17.80;11.00;;;;;;;;;;5004796;28;20482;-83
2022/06/04 05:34:20;;;;;;;14.70;10.07;;;;;;;;;;5005736;28;20485;-82
2022/06/04 05:36:47;;;;;;;16.07;10.00;;;;;;;;;;5007897;28;20474;-82
2022/06/04 05:39:14;;;;;;;15.00;9.70;;;;;;;;;;5004483;28;20545;-83
2022/06/04 05:41:40;;;;;;;15.60;10.00;;;;;;;;;;5003608;28;20489;-82
2022/06/04 05:44:07;;;;;;;16.83;10.37;;;;;;;;;;5003615;28;20469;-81
2022/06/04 05:46:34;;;;;;;11.53;9.27;;;;;;;;;;5003004;28;20482;-81
2022/06/04 05:49:01;;;;;;;14.30;10.17;;;;;;;;;;5002049;28;21032;-82
2022/06/04 05:51:29;;;;;;;10.57;9.13;;;;;;;;;;5004532;28;20524;-83
2022/06/04 05:53:56;;;;;;;15.37;9.80;;;;;;;;;;5004912;28;20473;-81
2022/06/04 05:56:23;;;;;;;11.97;9.70;;;;;;;;;;5002905;28;20888;-81
2022/06/04 05:58:51;;;;;;;15.73;9.63;;;;;;;;;;5006457;28;20499;-84
2022/06/04 06:01:18;;;;;;;18.30;10.33;;;;;;;;;;5004218;28;20499;-83
2022/06/04 06:03:46;;;;;;;11.43;9.20;;;;;;;;;;5004386;28;21000;-84
2022/06/04 06:06:13;;;;;;;14.27;10.40;;;;;;;;;;5004561;28;20458;-83
2022/06/04 06:08:39;;;;;;;15.33;9.60;;;;;;;;;;5005767;28;20577;-82
2022/06/04 06:11:06;;;;;;;11.57;9.50;;;;;;;;;;5004044;28;20512;-82
2022/06/04 06:13:32;;;;;;;12.80;10.20;;;;;;;;;;5005531;28;20586;-83
2022/06/04 06:16:03;;;;;;;15.57;10.73;;;;;;;;;;5005424;28;20489;-82
2022/06/04 06:18:29;;;;;;;11.40;8.90;;;;;;;;;;5005686;28;20508;-81
2022/06/04 06:20:57;;;;;;;14.43;9.80;;;;;;;;;;5006326;28;20453;-82
2022/06/04 06:23:23;;;;;;;11.87;9.23;;;;;;;;;;5003654;28;20573;-81
2022/06/04 06:25:49;;;;;;;10.53;9.17;;;;;;;;;;5007721;28;20537;-82
2022/06/04 06:28:16;;;;;;;11.03;8.60;;;;;;;;;;5004672;28;20479;-82
2022/06/04 06:30:42;;;;;;;21.70;9.80;;;;;;;;;;5006344;28;20491;-82
2022/06/04 06:33:08;;;;;;;13.70;9.30;;;;;;;;;;5007518;28;20460;-82
2022/06/04 06:35:35;;;;;;;14.57;9.73;;;;;;;;;;5006950;28;20473;-82
2022/06/04 06:38:02;;;;;;;11.37;9.30;;;;;;;;;;5003503;28;20903;-83
2022/06/04 06:40:28;;;;;;;14.13;9.60;;;;;;;;;;5005984;28;20450;-82
2022/06/04 06:42:55;;;;;;;13.27;9.83;;;;;;;;;;5002569;28;20478;-82
2022/06/04 06:45:21;;;;;;;11.00;8.67;;;;;;;;;;5003511;28;20462;-83
2022/06/04 06:47:48;;;;;;;15.03;9.60;;;;;;;;;;5000080;28;20828;-82
2022/06/04 06:50:15;;;;;;;13.30;9.07;;;;;;;;;;5003647;28;20546;-83
2022/06/04 06:52:41;;;;;;;12.00;8.80;;;;;;;;;;5002257;28;20486;-81
2022/06/04 06:55:09;;;;;;;13.37;8.60;;;;;;;;;;5002764;28;20516;-80
2022/06/04 06:57:36;;;;;;;13.30;9.60;;;;;;;;;;4999566;28;20484;-83
2022/06/04 07:00:04;;;;;;;12.13;9.67;;;;;;;;;;5002682;28;20454;-83
2022/06/04 07:02:30;;;;;;;10.77;8.83;;;;;;;;;;4999494;28;20521;-81
2022/06/04 07:04:56;;;;;;;11.70;9.30;;;;;;;;;;5004432;28;20446;-82
2022/06/04 07:07:22;;;;;;;11.27;9.40;;;;;;;;;;5002230;28;20997;-84
2022/06/04 07:09:48;;;;;;;15.20;9.13;;;;;;;;;;5004145;28;20906;-83
2022/06/04 07:12:16;;;;;;;14.53;9.30;;;;;;;;;;5003892;28;20943;-83
2022/06/04 07:14:42;;;;;;;12.63;9.50;;;;;;;;;;5004179;28;20420;-83
2022/06/04 07:17:09;;;;;;;13.80;9.13;;;;;;;;;;5005170;28;20448;-83
2022/06/04 07:19:35;;;;;;;10.60;8.67;;;;;;;;;;5006327;28;20428;-82
2022/06/04 07:22:01;;;;;;;11.93;8.40;;;;;;;;;;5002888;28;20443;-84
2022/06/04 07:24:27;;;;;;;12.80;9.60;;;;;;;;;;5003720;28;20441;-83
2022/06/04 07:26:54;;;;;;;12.83;10.07;;;;;;;;;;5001063;28;20485;-81
2022/06/04 07:29:22;;;;;;;10.80;9.60;;;;;;;;;;5004202;28;20443;-84
2022/06/04 07:31:48;;;;;;;12.10;8.87;;;;;;;;;;5005189;28;20508;-83
2022/06/04 07:34:14;;;;;;;13.60;9.20;;;;;;;;;;5004652;28;20442;-84
2022/06/04 07:36:42;;;;;;;10.13;8.27;;;;;;;;;;5003447;28;20459;-82
2022/06/04 07:39:10;;;;;;;12.93;9.37;;;;;;;;;;5003853;28;20453;-83
2022/06/04 07:41:38;;;;;;;12.93;8.93;;;;;;;;;;5004718;28;20570;-82
2022/06/04 07:44:05;;;;;;;12.67;8.53;;;;;;;;;;5009234;28;20454;-82
2022/06/04 07:46:33;;;;;;;11.63;9.40;;;;;;;;;;5009404;28;20443;-83
2022/06/04 07:49:00;;;;;;;14.03;9.60;;;;;;;;;;5008807;28;20517;-82
2022/06/04 07:51:28;;;;;;;11.70;8.70;;;;;;;;;;5009592;28;20894;-83
2022/06/04 07:53:54;;;;;;;13.27;9.10;;;;;;;;;;5009685;28;20804;-83
2022/06/04 07:56:20;;;;;;;11.07;9.40;;;;;;;;;;5010893;28;20461;-84
2022/06/04 07:58:47;;;;;;;11.67;8.50;;;;;;;;;;5010083;28;20535;-81
2022/06/04 08:01:15;;;;;;;10.00;8.50;;;;;;;;;;5010187;28;20465;-83
2022/06/04 08:03:43;;;;;;;9.80;8.10;;;;;;;;;;5007788;28;20521;-82
2022/06/04 08:06:10;;;;;;;7.93;7.13;;;;;;;;;;5008387;28;20526;-82
2022/06/04 08:08:37;;;;;;;10.63;9.40;;;;;;;;;;5009049;28;20470;-82
2022/06/04 08:11:30;;;;;;;11.40;8.60;;;;;;;;;;5010596;28;20494;-83
2022/06/04 08:13:50;;;;;;;9.10;7.23;;;;;;;;;;5007253;28;20483;-84
2022/06/04 08:16:16;;;;;;;16.40;8.30;;;;;;;;;;5009389;28;20454;-80
2022/06/04 08:18:45;;;;;;;18.83;9.00;;;;;;;;;;5009509;28;20478;-81
2022/06/04 08:21:11;;;;;;;13.03;8.70;;;;;;;;;;5009922;28;20504;-84
2022/06/04 08:23:39;;;;;;;9.33;8.10;;;;;;;;;;5005224;28;20536;-81
2022/06/04 08:26:07;;;;;;;10.47;8.60;;;;;;;;;;5004604;28;20986;-82
2022/06/04 08:28:33;;;;;;;9.67;7.70;;;;;;;;;;5007972;28;20548;-81
2022/06/04 08:31:00;;;;;;;10.10;8.73;;;;;;;;;;5002032;28;20497;-82
2022/06/04 08:33:26;;;;;;;10.57;8.23;;;;;;;;;;5003711;28;20565;-82
2022/06/04 08:35:54;;;;;;;11.57;8.70;;;;;;;;;;5003215;28;20544;-79
2022/06/04 08:38:20;;;;;;;9.07;7.70;;;;;;;;;;5001388;28;20918;-83
2022/06/04 08:40:49;;;;;;;10.20;7.97;;;;;;;;;;5004142;28;20462;-82
2022/06/04 08:43:21;;;;;;;13.13;7.43;;;;;;;;;;5001828;28;20482;-80
2022/06/04 08:45:47;;;;;;;9.67;7.73;;;;;;;;;;5001036;28;20473;-79
2022/06/04 08:48:15;;;;;;;12.10;8.20;;;;;;;;;;5003920;28;20474;-82
2022/06/04 08:50:42;;;;;;;9.30;7.00;;;;;;;;;;5002815;28;21021;-81
2022/06/04 08:53:15;;;;;;;14.60;7.90;;;;;;;;;;5002192;28;20870;-82
2022/06/04 08:58:36;;;;;;;8.50;7.70;;;;;;;;;;5001840;28;20500;-78
2022/06/04 09:01:05;;;;;;;12.00;8.23;;;;;;;;;;5001969;28;20470;-77
2022/06/04 09:03:35;;;;;;;10.00;6.17;;;;;;;;;;5004848;28;20464;-79
2022/06/04 09:06:09;;;;;;;7.47;6.77;;;;;;;;;;5003061;28;20473;-81
2022/06/04 09:08:42;;;;;;;6.03;5.13;;;;;;;;;;5019828;22;20504;-81
2022/06/04 09:11:11;;;;;;;8.67;7.57;;;;;;;;;;5022320;28;20502;-81
2022/06/04 09:13:42;;;;;;;8.90;7.00;;;;;;;;;;5024256;28;20457;-81
2022/06/04 09:16:15;;;;;;;6.70;6.10;;;;;;;;;;5023537;28;20464;-79
2022/06/04 09:18:41;;;;;;;7.60;5.57;;;;;;;;;;5038973;28;21005;-80
2022/06/04 09:21:10;;;;;;;5.30;4.90;;;;;;;;;;5043777;28;20982;-83
2022/06/04 09:23:42;;;;;;;7.83;5.80;;;;;;;;;;5041644;28;20463;-82
2022/06/04 09:26:17;;;;;;;8.00;6.37;;;;;;;;;;5041435;28;20459;-81
2022/06/04 09:28:46;;;;;;;7.70;6.47;;;;;;;;;;5042189;28;20494;-80
2022/06/04 09:31:20;;;;;;;9.80;7.00;;;;;;;;;;5038033;22;20490;-83
2022/06/04 09:33:53;;;;;;;5.97;5.40;;;;;;;;;;5001704;28;20474;-83
2022/06/04 09:36:22;;;;;;;9.13;6.17;;;;;;;;;;5003708;28;20537;-82
2022/06/04 09:38:53;;;;;;;10.10;5.80;;;;;;;;;;5003935;28;20465;-83
2022/06/04 09:41:22;;;;;;;6.87;5.07;;;;;;;;;;5004118;28;20476;-82
2022/06/04 09:43:59;;;;;;;8.07;7.03;;;;;;;;;;5006323;28;20991;-83
2022/06/04 09:46:26;;;;;;;11.70;6.37;;;;;;;;;;5007345;28;20517;-82
2022/06/04 09:48:53;;;;;;;6.47;5.73;;;;;;;;;;5000552;28;20470;-83
2022/06/04 09:51:21;;;;;;;13.67;7.60;;;;;;;;;;5003287;28;20473;-82
2022/06/04 09:53:48;;;;;;;8.23;6.27;;;;;;;;;;5002414;28;20544;-84
2022/06/04 09:56:16;;;;;;;31.93;8.83;;;;;;;;;;5003529;28;20967;-81
2022/06/04 09:58:44;;;;;;;12.13;6.93;;;;;;;;;;5000819;28;20470;-82
2022/06/04 10:01:23;;;;;;;38.83;34.87;;;;;;;;;;5000656;28;20493;-82
2022/06/04 10:03:58;;;;;;;11.13;7.77;;;;;;;;;;5002269;28;20535;-82
2022/06/04 10:06:26;;;;;;;16.03;6.30;;;;;;;;;;5003281;28;20545;-82
2022/06/04 10:11:48;;;;;;;9.00;5.37;;;;;;;;;;5003159;28;20883;-83
2022/06/04 10:14:15;;;;;;;10.53;5.90;;;;;;;;;;5002344;28;20437;-82
2022/06/04 10:16:44;;;;;;;5.83;4.73;;;;;;;;;;5000884;28;20506;-81
2022/06/04 10:19:15;;;;;;;39.27;11.17;;;;;;;;;;5001556;28;20998;-82
2022/06/04 10:21:43;;;;;;;38.50;13.13;;;;;;;;;;5003275;28;20484;-81
2022/06/04 10:24:19;;;;;;;40.57;11.73;;;;;;;;;;5003508;28;20451;-83
2022/06/04 10:26:51;;;;;;;46.50;42.10;;;;;;;;;;5001470;28;20512;-82
2022/06/04 10:29:33;;;;;;;23.70;19.70;;;;;;;;;;5002193;28;20459;-82
2022/06/04 10:32:05;;;;;;;9.03;5.73;;;;;;;;;;5002037;28;20482;-83
2022/06/04 10:34:34;;;;;;;10.30;5.30;;;;;;;;;;5003915;28;21212;-82
2022/06/04 10:37:07;;;;;;;7.07;5.27;;;;;;;;;;5002183;28;20485;-82
2022/06/04 10:39:39;;;;;;;5.90;5.30;;;;;;;;;;5001923;28;20477;-82
2022/06/04 10:42:11;;;;;;;5.43;4.90;;;;;;;;;;5001266;28;21019;-82
2022/06/04 10:44:45;;;;;;;7.60;4.53;;;;;;;;;;5002118;28;20477;-81
2022/06/04 10:47:18;;;;;;;66.20;11.67;;;;;;;;;;5002045;28;20564;-81
2022/06/04 10:49:59;;;;;;;7.83;4.30;;;;;;;;;;5002532;28;20474;-82
2022/06/04 10:52:28;;;;;;;16.10;5.63;;;;;;;;;;5003542;28;20481;-82
2022/06/04 10:55:00;;;;;;;6.80;4.30;;;;;;;;;;5003580;28;20465;-81
2022/06/04 10:57:28;;;;;;;6.37;4.20;;;;;;;;;;5002259;28;20520;-79
2022/06/04 10:59:59;;;;;;;16.20;5.50;;;;;;;;;;5003630;28;20805;-81
2022/06/04 11:02:28;;;;;;;10.33;5.87;;;;;;;;;;5001456;28;20470;-81
2022/06/04 11:04:56;;;;;;;6.00;4.10;;;;;;;;;;5002295;28;21184;-83
2022/06/04 11:07:29;;;;;;;4.50;3.47;;;;;;;;;;5001323;28;20469;-81
2022/06/04 11:09:56;;;;;;;5.67;3.87;;;;;;;;;;5002663;28;20514;-81
2022/06/04 11:12:27;;;;;;;5.00;4.00;;;;;;;;;;5001548;28;20489;-81
2022/06/04 11:14:56;;;;;;;4.50;4.07;;;;;;;;;;5001347;28;20880;-83
2022/06/04 11:17:25;;;;;;;8.23;4.43;;;;;;;;;;5001769;28;20584;-83
2022/06/04 11:19:55;;;;;;;4.80;4.00;;;;;;;;;;4999686;28;20888;-82
2022/06/04 11:22:24;;;;;;;5.93;4.10;;;;;;;;;;5001040;28;20474;-83
2022/06/04 11:24:53;;;;;;;4.70;4.30;;;;;;;;;;5001804;28;20458;-83
2022/06/04 11:27:22;;;;;;;3.90;3.30;;;;;;;;;;5001139;28;20462;-83
2022/06/04 11:29:50;;;;;;;4.50;4.10;;;;;;;;;;5001201;28;21363;-82
2022/06/04 11:32:20;;;;;;;8.43;4.43;;;;;;;;;;5001123;28;20900;-83
2022/06/04 11:35:03;;;;;;;4.47;4.07;;;;;;;;;;5002604;28;20544;-83
2022/06/04 11:37:37;;;;;;;4.53;4.10;;;;;;;;;;5001276;28;20472;-82
2022/06/04 11:40:11;;;;;;;6.83;5.13;;;;;;;;;;5001210;28;20461;-83
2022/06/04 11:42:44;;;;;;;4.00;3.70;;;;;;;;;;4999911;28;20477;-84
2022/06/04 11:45:20;;;;;;;5.57;4.10;;;;;;;;;;5000205;28;20917;-82
2022/06/04 11:47:52;;;;;;;4.87;3.83;;;;;;;;;;5001161;28;20478;-82
2022/06/04 11:50:25;;;;;;;3.90;3.50;;;;;;;;;;5001115;28;21045;-82
2022/06/04 11:52:54;;;;;;;4.60;4.10;;;;;;;;;;5001601;28;20484;-83
2022/06/04 11:55:26;;;;;;;5.20;4.30;;;;;;;;;;5000316;28;20467;-82
2022/06/04 11:58:03;;;;;;;4.83;4.33;;;;;;;;;;5001482;28;20525;-83
2022/06/04 12:00:31;;;;;;;5.20;4.30;;;;;;;;;;5001918;28;20489;-83
2022/06/04 12:03:01;;;;;;;4.60;4.20;;;;;;;;;;5001093;28;20527;-82
2022/06/04 12:05:32;;;;;;;5.10;3.93;;;;;;;;;;5001838;28;20450;-83
2022/06/04 12:08:04;;;;;;;6.30;3.80;;;;;;;;;;5002696;28;20531;-83
2022/06/04 12:10:36;;;;;;;4.47;4.07;;;;;;;;;;5000466;28;20568;-82
2022/06/04 12:13:06;;;;;;;3.70;3.40;;;;;;;;;;5001551;28;20482;-83
2022/06/04 12:15:35;;;;;;;6.50;3.80;;;;;;;;;;5001984;28;20455;-83
2022/06/04 12:18:05;;;;;;;6.20;3.47;;;;;;;;;;5001234;28;20485;-83
2022/06/04 12:26:17;;;;;;;5.27;4.07;;;;;;;;;;5001339;28;20477;-82
2022/06/04 12:28:43;;;;;;;8.23;5.00;;;;;;;;;;5003865;28;20549;-81
2022/06/04 12:31:09;;;;;;;6.23;5.30;;;;;;;;;;5004401;28;20876;-82
2022/06/04 12:33:37;;;;;;;4.13;3.70;;;;;;;;;;5004908;28;20518;-82
2022/06/04 12:36:06;;;;;;;4.90;4.40;;;;;;;;;;5005110;28;20497;-81
2022/06/04 12:38:33;;;;;;;4.93;4.30;;;;;;;;;;5004269;28;21069;-83
2022/06/04 12:41:07;;;;;;;3.87;3.47;;;;;;;;;;5005459;28;20584;-82
2022/06/04 12:43:35;;;;;;;4.30;3.50;;;;;;;;;;5004456;28;20474;-81
2022/06/04 12:46:07;;;;;;;10.13;5.17;;;;;;;;;;5007155;28;20512;-81
2022/06/04 12:48:38;;;;;;;4.13;3.30;;;;;;;;;;5006477;28;20876;-81
2022/06/04 12:51:07;;;;;;;7.00;3.80;;;;;;;;;;5004489;28;20477;-82
2022/06/04 12:53:35;;;;;;;4.53;3.40;;;;;;;;;;5003593;28;20493;-81
2022/06/04 12:56:03;;;;;;;3.73;3.43;;;;;;;;;;5004904;28;20449;-82
2022/06/04 12:58:33;;;;;;;4.40;3.83;;;;;;;;;;5005227;28;20478;-81
2022/06/04 13:01:00;;;;;;;3.67;3.30;;;;;;;;;;5002336;28;21081;-82
2022/06/04 13:03:29;;;;;;;3.83;3.30;;;;;;;;;;5005259;28;20473;-82
2022/06/04 13:05:58;;;;;;;3.73;2.97;;;;;;;;;;5002799;28;20970;-81
2022/06/04 13:08:29;;;;;;;4.30;3.80;;;;;;;;;;5005600;28;20486;-81
2022/06/04 13:10:59;;;;;;;5.57;3.87;;;;;;;;;;5003991;28;20904;-81
2022/06/04 13:13:42;;;;;;;3.93;3.30;;;;;;;;;;5004587;28;20477;-82
2022/06/04 13:16:16;;;;;;;3.77;3.20;;;;;;;;;;5006027;28;20549;-81
2022/06/04 13:18:43;;;;;;;5.53;3.27;;;;;;;;;;5006346;28;20460;-82
2022/06/04 13:21:12;;;;;;;4.10;3.07;;;;;;;;;;5007287;28;20486;-81
2022/06/04 13:23:41;;;;;;;6.47;4.00;;;;;;;;;;5004900;28;20469;-82
2022/06/04 13:26:23;;;;;;;4.43;3.30;;;;;;;;;;5004838;28;20445;-81
2022/06/04 13:28:49;;;;;;;3.87;3.10;;;;;;;;;;5004602;28;20465;-82
2022/06/04 13:31:17;;;;;;;3.90;3.50;;;;;;;;;;5003395;28;20573;-83
2022/06/04 13:33:43;;;;;;;3.60;3.20;;;;;;;;;;5003932;28;20498;-83
2022/06/04 13:36:19;;;;;;;6.57;3.87;;;;;;;;;;5001265;28;20473;-82
2022/06/04 13:38:47;;;;;;;3.80;3.43;;;;;;;;;;5005886;28;20472;-82
2022/06/04 13:41:17;;;;;;;4.87;4.13;;;;;;;;;;5002482;28;20477;-82
2022/06/04 13:43:44;;;;;;;4.83;4.17;;;;;;;;;;5003143;28;20866;-82
2022/06/04 13:46:16;;;;;;;4.30;3.70;;;;;;;;;;5003358;28;20457;-82
2022/06/04 13:48:53;;;;;;;7.53;3.63;;;;;;;;;;5002339;28;20469;-83
2022/06/04 13:51:20;;;;;;;3.77;3.43;;;;;;;;;;5003561;28;20492;-82
2022/06/04 13:53:53;;;;;;;4.37;3.57;;;;;;;;;;5005069;28;20498;-82
2022/06/04 13:56:21;;;;;;;4.73;4.03;;;;;;;;;;5002833;28;20454;-81
2022/06/04 13:58:47;;;;;;;3.80;3.50;;;;;;;;;;5003311;28;20474;-82
2022/06/04 14:01:18;;;;;;;6.80;4.20;;;;;;;;;;5000208;28;20486;-86
2022/06/04 14:03:46;;;;;;;6.03;4.57;;;;;;;;;;5002787;28;20462;-85
2022/06/04 14:06:12;;;;;;;6.37;4.77;;;;;;;;;;5003732;28;20458;-84
2022/06/04 14:08:46;;;;;;;9.00;4.20;;;;;;;;;;5002402;28;21021;-84
2022/06/04 14:11:18;;;;;;;7.10;4.33;;;;;;;;;;5001384;28;20229;-84
2022/06/04 14:13:53;;;;;;;4.70;3.80;;;;;;;;;;5002137;28;20489;-84
2022/06/04 14:16:26;;;;;;;5.87;4.13;;;;;;;;;;5000894;28;20539;-85
2022/06/04 14:19:02;;;;;;;6.03;4.30;;;;;;;;;;5002495;28;20466;-83
2022/06/04 14:21:39;;;;;;;7.00;4.47;;;;;;;;;;5001787;28;20474;-82
2022/06/04 14:24:12;;;;;;;6.00;4.37;;;;;;;;;;5002348;28;20864;-83
2022/06/04 14:26:45;;;;;;;7.23;4.80;;;;;;;;;;5001888;28;20545;-84
2022/06/04 14:29:14;;;;;;;8.33;4.93;;;;;;;;;;4999658;28;20480;-83
2022/06/04 14:31:46;;;;;;;5.57;4.23;;;;;;;;;;5000884;28;20493;-83
2022/06/04 14:34:13;;;;;;;5.03;4.53;;;;;;;;;;5001642;28;20532;-84
2022/06/04 14:36:47;;;;;;;8.07;5.93;;;;;;;;;;5002256;28;20473;-83
2022/06/04 14:39:13;;;;;;;5.57;5.07;;;;;;;;;;5003353;28;20446;-83
2022/06/04 14:41:48;;;;;;;11.60;4.97;;;;;;;;;;5001710;28;20548;-84
2022/06/04 14:44:36;;;;;;;6.47;5.20;;;;;;;;;;5002367;28;20496;-83
2022/06/04 14:47:12;;;;;;;5.37;4.73;;;;;;;;;;4997345;28;20482;-83
2022/06/04 14:49:46;;;;;;;6.77;4.23;;;;;;;;;;5001593;28;20449;-83
2022/06/04 14:52:22;;;;;;;11.43;5.40;;;;;;;;;;5001567;28;20476;-83
2022/06/04 14:54:50;;;;;;;7.77;4.50;;;;;;;;;;5002030;28;20489;-84
2022/06/04 14:57:29;;;;;;;8.43;5.17;;;;;;;;;;5001210;28;21199;-83
2022/06/04 15:00:05;;;;;;;10.73;4.60;;;;;;;;;;5002486;28;20838;-83
2022/06/04 15:02:45;;;;;;;5.10;4.00;;;;;;;;;;5002157;28;20571;-84
2022/06/04 15:05:21;;;;;;;6.37;4.80;;;;;;;;;;4999663;28;20465;-84